createdAt,value
2023-07-26T04:45:16.766Z,97084.13
2023-07-26T04:48:19.524Z,97083.09
2023-07-26T04:51:22.396Z,97081.72
2023-07-26T04:54:23.962Z,97090.66
2023-07-26T04:57:26.022Z,97081.28
2023-07-26T05:00:28.394Z,97089.06
2023-07-26T05:03:30.003Z,97101.56
2023-07-26T05:06:32.190Z,97091.88
2023-07-26T05:09:33.812Z,97111.06
2023-07-26T05:12:35.434Z,97115.84
2023-07-26T05:15:39.687Z,97120.34
2023-07-26T05:18:41.550Z,97119.13
2023-07-26T05:21:43.820Z,97126.34
2023-07-26T05:24:45.427Z,97117.63
2023-07-26T05:27:47.507Z,97122.59
2023-07-26T05:30:49.733Z,97125.31
2023-07-26T05:33:51.262Z,97118.59
2023-07-26T05:36:52.921Z,97130.69
2023-07-26T05:39:54.651Z,97125.41
2023-07-26T05:42:58.382Z,97115.97
2023-07-26T05:46:03.320Z,97126.78
2023-07-26T05:49:04.973Z,97109.81
2023-07-26T05:52:06.789Z,97114.13
2023-07-26T05:55:13.187Z,97103.72
2023-07-26T05:58:14.781Z,97122.19
2023-07-26T06:01:16.341Z,97125.47
2023-07-26T06:04:17.934Z,97131.91
2023-07-26T06:07:19.592Z,97129.88
2023-07-26T06:10:21.153Z,97132.38
2023-07-26T06:13:22.750Z,97138.50
2023-07-26T06:16:24.445Z,97140.34
2023-07-26T06:19:26.001Z,97142.81
2023-07-26T06:22:29.877Z,97138.91
2023-07-26T06:25:33.611Z,97149.53
2023-07-26T06:28:35.281Z,97138.50
2023-07-26T06:31:36.860Z,97144.22
2023-07-26T06:34:38.450Z,97145.06
2023-07-26T06:37:40.072Z,97147.13
2023-07-26T06:40:43.959Z,97148.34
2023-07-26T06:43:45.572Z,97159.19
2023-07-26T06:46:47.119Z,97156.09
2023-07-26T06:49:48.671Z,97148.53
2023-07-26T06:52:50.314Z,97151.41
2023-07-26T06:55:52.012Z,97153.66
2023-07-26T06:58:54.828Z,97157.38
2023-07-26T07:01:56.463Z,97154.09
2023-07-26T07:04:58.109Z,97160.25
2023-07-26T07:07:59.708Z,97155.69
2023-07-26T07:11:01.261Z,97151.41
2023-07-26T07:14:02.863Z,97147.34
2023-07-26T07:17:04.982Z,97152.44
2023-07-26T07:20:08.306Z,97149.78
2023-07-26T07:23:10.449Z,97141.38
2023-07-26T07:26:12.855Z,97145.69
2023-07-26T07:29:14.341Z,97145.09
2023-07-26T07:32:22.092Z,97145.91
2023-07-26T07:35:24.180Z,97142.00
2023-07-26T07:38:25.729Z,97145.41
2023-07-26T07:41:27.298Z,97150.31
2023-07-26T07:44:29.358Z,97149.69
2023-07-26T07:47:30.947Z,97154.72
2023-07-26T07:50:32.657Z,97159.88
2023-07-26T07:53:34.210Z,97158.03
2023-07-26T07:56:35.865Z,97158.56
2023-07-26T07:59:37.378Z,97152.81
2023-07-26T08:02:38.978Z,97157.31
2023-07-26T08:05:40.662Z,97156.91
2023-07-26T08:08:42.140Z,97154.03
2023-07-26T08:11:43.712Z,97160.69
2023-07-26T08:14:49.061Z,97165.47
2023-07-26T08:17:50.681Z,97158.22
2023-07-26T08:20:52.231Z,97151.72
2023-07-26T08:23:53.710Z,97156.91
2023-07-26T08:26:55.788Z,97154.47
2023-07-26T08:29:57.668Z,97155.59
2023-07-26T08:32:59.283Z,97163.19
2023-07-26T08:36:00.843Z,97160.31
2023-07-26T08:39:02.411Z,97158.78
2023-07-26T08:42:05.071Z,97161.84
2023-07-26T08:45:07.507Z,97153.28
2023-07-26T08:48:10.046Z,97161.84
2023-07-26T08:51:12.486Z,97155.56
2023-07-26T08:54:15.617Z,97170.00
2023-07-26T08:57:17.504Z,97166.59
2023-07-26T09:00:19.970Z,97160.00
2023-07-26T09:03:21.682Z,97151.41
2023-07-26T09:06:24.311Z,97151.78
2023-07-26T09:09:25.943Z,97157.38
2023-07-26T09:12:29.160Z,97159.50
2023-07-26T09:15:37.426Z,97149.22
2023-07-26T09:18:55.731Z,97152.00
2023-07-26T09:22:01.766Z,97147.69
2023-07-26T09:25:03.709Z,97154.16
2023-07-26T09:28:07.602Z,97141.97
2023-07-26T09:31:09.193Z,97151.09
2023-07-26T09:34:15.494Z,97162.97
2023-07-26T09:37:22.525Z,97172.00
2023-07-26T09:40:37.908Z,97176.78
2023-07-26T09:43:41.707Z,97186.44
2023-07-26T09:46:53.913Z,97190.16
2023-07-26T09:50:15.649Z,97185.38
2023-07-26T09:53:18.050Z,97185.94
2023-07-26T09:56:19.755Z,97185.78
2023-07-26T09:59:24.508Z,97183.88
2023-07-26T10:02:28.025Z,97191.22
2023-07-26T10:05:39.567Z,97191.50
2023-07-26T10:08:43.376Z,97177.19
2023-07-26T10:11:46.687Z,97174.16
2023-07-26T10:14:49.207Z,97194.66
2023-07-26T10:17:53.148Z,97191.06
2023-07-26T10:20:57.960Z,97186.28
2023-07-26T10:24:03.296Z,97182.78
2023-07-26T10:27:06.038Z,97182.63
2023-07-26T10:30:08.116Z,97176.25
2023-07-26T10:33:14.247Z,97192.66
2023-07-26T10:36:16.615Z,97186.47
2023-07-26T10:39:30.037Z,97172.06
2023-07-26T10:42:31.692Z,97172.22
2023-07-26T10:45:42.436Z,97177.97
2023-07-26T10:48:44.213Z,97176.91
2023-07-26T10:51:59.588Z,97177.28
2023-07-26T10:55:01.156Z,97177.84
2023-07-26T10:58:13.437Z,97178.56
2023-07-26T11:01:34.112Z,97175.56
2023-07-26T11:04:44.434Z,97176.03
2023-07-26T11:07:55.236Z,97165.66
2023-07-26T11:10:56.714Z,97160.53
2023-07-26T11:13:59.018Z,97155.88
2023-07-26T11:17:15.922Z,97157.03
2023-07-26T11:20:17.659Z,97158.41
2023-07-26T11:23:25.865Z,97160.47
2023-07-26T11:26:29.515Z,97163.75
2023-07-26T11:29:31.041Z,97163.91
2023-07-26T11:32:32.582Z,97169.81
2023-07-26T11:35:43.828Z,97161.44
2023-07-26T11:38:45.501Z,97157.50
2023-07-26T11:41:47.116Z,97153.41
2023-07-26T11:44:48.681Z,97161.63
2023-07-26T11:47:51.500Z,97163.97
2023-07-26T11:50:56.518Z,97165.88
2023-07-26T11:53:58.287Z,97161.50
2023-07-26T11:57:00.146Z,97173.75
2023-07-26T12:00:05.544Z,97173.94
2023-07-26T12:03:14.176Z,97172.59
2023-07-26T12:06:15.776Z,97180.22
2023-07-26T12:09:17.494Z,97178.09
2023-07-26T12:12:19.209Z,97184.59
2023-07-26T12:15:20.951Z,97181.44
2023-07-26T12:18:24.608Z,97179.19
2023-07-26T12:21:26.443Z,97185.38
2023-07-26T12:24:28.903Z,97174.44
2023-07-26T12:27:35.381Z,97183.84
2023-07-26T12:30:36.943Z,97190.78
2023-07-26T12:33:55.917Z,97192.47
2023-07-26T12:37:00.308Z,97190.53
2023-07-26T12:40:01.873Z,97197.44
2023-07-26T12:43:23.854Z,97191.28
2023-07-26T12:46:25.653Z,97187.44
2023-07-26T12:49:27.222Z,97185.69
2023-07-26T12:52:29.058Z,97178.78
2023-07-26T12:55:30.763Z,97181.44
2023-07-26T12:58:32.368Z,97188.41
2023-07-26T13:01:34.132Z,97188.16
2023-07-26T13:04:35.823Z,97184.38
2023-07-26T13:07:37.332Z,97187.31
2023-07-26T13:10:38.888Z,97200.06
2023-07-26T13:13:40.416Z,97189.75
2023-07-26T13:16:42.712Z,97193.13
2023-07-26T13:19:44.369Z,97201.75
2023-07-26T13:22:45.969Z,97204.50
2023-07-26T13:25:47.741Z,97197.78
2023-07-26T13:28:49.747Z,97207.53
2023-07-26T13:31:51.301Z,97205.16
2023-07-26T13:34:53.028Z,97204.41
2023-07-26T13:37:54.778Z,97203.69
2023-07-26T13:40:56.378Z,97199.25
2023-07-26T13:43:57.907Z,97210.09
2023-07-26T13:46:59.440Z,97212.25
2023-07-26T13:50:01.021Z,97205.22
2023-07-26T13:53:02.545Z,97207.09
2023-07-26T13:56:04.122Z,97205.19
2023-07-26T13:59:05.761Z,97192.81
2023-07-26T14:02:07.849Z,97205.19
2023-07-26T14:05:09.441Z,97211.69
2023-07-26T14:08:10.993Z,97206.00
2023-07-26T14:11:12.624Z,97206.22
2023-07-26T14:14:14.158Z,97204.69
2023-07-26T14:17:15.738Z,97207.94
2023-07-26T14:20:17.474Z,97213.00
2023-07-26T14:23:19.039Z,97207.13
2023-07-26T14:26:20.722Z,97209.31
2023-07-26T14:29:22.313Z,97211.50
2023-07-26T14:32:23.849Z,97212.78
2023-07-26T14:35:25.424Z,97206.56
2023-07-26T14:38:26.981Z,97204.44
2023-07-26T14:41:28.624Z,97198.19
2023-07-26T14:44:30.227Z,97206.69
2023-07-26T14:47:31.811Z,97202.53
2023-07-26T14:50:33.417Z,97199.44
2023-07-26T14:53:35.047Z,97204.44
2023-07-26T14:56:36.618Z,97192.44
2023-07-26T14:59:38.187Z,97194.44
2023-07-26T15:02:40.136Z,97180.53
2023-07-26T15:05:46.995Z,97183.50
2023-07-26T15:08:48.713Z,97181.03
2023-07-26T15:11:50.250Z,97187.25
2023-07-26T15:14:53.488Z,97177.09
2023-07-26T15:17:55.246Z,97184.84
2023-07-26T15:20:56.838Z,97179.59
2023-07-26T15:23:58.317Z,97182.50
2023-07-26T15:26:59.863Z,97182.91
2023-07-26T15:30:01.813Z,97183.66
2023-07-26T15:33:04.324Z,97177.25
2023-07-26T15:36:10.141Z,97178.66
2023-07-26T15:39:11.917Z,97175.09
2023-07-26T15:45:54.917Z,97174.56
2023-07-26T15:48:50.129Z,97169.19
2023-07-26T15:51:51.700Z,97175.19
2023-07-26T15:54:53.183Z,97181.44
2023-07-26T15:57:54.736Z,97171.09
2023-07-26T16:00:56.319Z,97180.22
2023-07-26T16:03:57.974Z,97182.09
2023-07-26T16:07:02.722Z,97182.88
2023-07-26T16:10:05.721Z,97177.72
2023-07-26T16:13:07.415Z,97170.38
2023-07-26T16:19:14.084Z,97161.75
2023-07-26T16:22:15.873Z,97163.81
2023-07-26T16:25:17.399Z,97162.19
2023-07-26T16:28:18.966Z,97163.13
2023-07-26T16:31:20.519Z,97160.88
2023-07-26T16:34:22.065Z,97160.81
2023-07-26T16:37:23.618Z,97166.28
2023-07-26T16:40:25.169Z,97161.53
2023-07-26T16:43:26.788Z,97158.94
2023-07-26T16:46:37.697Z,97164.66
2023-07-26T16:49:50.984Z,97148.28
2023-07-26T16:52:52.491Z,97154.28
2023-07-26T16:55:54.127Z,97158.19
2023-07-26T16:58:55.663Z,97156.50
2023-07-26T17:01:57.287Z,97149.78
2023-07-26T17:04:58.858Z,97143.03
2023-07-26T17:08:00.460Z,97144.41
2023-07-26T17:11:02.001Z,97141.13
2023-07-26T17:14:03.562Z,97145.13
2023-07-26T17:17:05.361Z,97142.56
2023-07-26T17:20:07.675Z,97132.41
2023-07-26T17:23:09.214Z,97138.56
2023-07-26T17:26:10.805Z,97146.25
2023-07-26T17:29:12.375Z,97137.81
2023-07-26T17:32:14.025Z,97142.66
2023-07-26T17:35:15.729Z,97141.06
2023-07-26T17:38:18.088Z,97150.81
2023-07-26T17:41:19.957Z,97162.78
2023-07-26T17:44:21.644Z,97159.25
2023-07-26T17:47:23.274Z,97157.25
2023-07-26T17:50:26.470Z,97151.47
2023-07-26T17:53:30.576Z,97154.59
2023-07-26T17:56:32.477Z,97162.25
2023-07-26T17:59:39.523Z,97162.97
2023-07-26T18:02:41.794Z,97167.13
2023-07-26T18:05:45.632Z,97162.88
2023-07-26T18:08:50.457Z,97181.84
2023-07-26T18:11:53.276Z,97177.84
2023-07-26T18:14:54.912Z,97185.81
2023-07-26T18:17:56.533Z,97185.34
2023-07-26T18:21:06.678Z,97178.59
2023-07-26T18:24:09.306Z,97178.28
2023-07-26T18:27:10.906Z,97182.19
2023-07-26T18:30:12.818Z,97176.41
2023-07-26T18:33:14.518Z,97178.16
2023-07-26T18:36:18.262Z,97177.69
2023-07-26T18:39:19.845Z,97181.38
2023-07-26T18:42:21.404Z,97187.00
2023-07-26T18:45:23.106Z,97188.16
2023-07-26T18:48:25.106Z,97188.97
2023-07-26T18:51:26.688Z,97181.13
2023-07-26T18:54:28.206Z,97181.31
2023-07-26T18:57:29.762Z,97180.84
2023-07-26T19:00:31.458Z,97193.75
2023-07-26T19:03:33.120Z,97197.41
2023-07-26T19:06:34.922Z,97195.47
2023-07-26T19:09:36.820Z,97212.03
2023-07-26T19:12:38.380Z,97219.34
2023-07-26T19:15:39.888Z,97229.19
2023-07-26T19:18:41.433Z,97228.19
2023-07-26T19:21:43.045Z,97225.38
2023-07-26T19:24:44.630Z,97239.50
2023-07-26T19:27:46.212Z,97239.38
2023-07-26T19:30:47.899Z,97243.63
2023-07-26T19:33:49.546Z,97250.28
2023-07-26T19:36:51.092Z,97246.34
2023-07-26T19:39:52.637Z,97249.47
2023-07-26T19:42:54.202Z,97249.75
2023-07-26T19:45:55.758Z,97257.69
2023-07-26T19:48:57.804Z,97252.94
2023-07-26T19:51:59.427Z,97243.66
2023-07-26T19:55:00.928Z,97245.50
2023-07-26T19:58:02.431Z,97241.28
2023-07-26T20:01:06.007Z,97251.47
2023-07-26T20:04:07.565Z,97239.84
2023-07-26T20:07:09.205Z,97251.66
2023-07-26T20:10:11.063Z,97251.69
2023-07-26T20:13:16.177Z,97237.56
2023-07-26T20:16:19.375Z,97242.41
2023-07-26T20:23:06.461Z,97247.66
2023-07-26T20:26:08.083Z,97239.88
2023-07-26T20:29:09.753Z,97242.38
2023-07-26T20:32:11.396Z,97237.31
2023-07-26T20:35:13.028Z,97235.88
2023-07-26T20:38:14.675Z,97231.22
2023-07-26T20:41:16.258Z,97233.88
2023-07-26T20:44:17.985Z,97229.56
2023-07-26T20:47:20.040Z,97232.22
2023-07-26T20:50:21.587Z,97230.19
2023-07-26T20:53:23.754Z,97220.94
2023-07-26T20:56:25.271Z,97222.81
2023-07-26T20:59:26.876Z,97223.66
2023-07-26T21:02:28.635Z,97219.38
2023-07-26T21:05:31.323Z,97225.94
2023-07-26T21:08:32.925Z,97211.22
2023-07-26T21:11:34.961Z,97214.69
2023-07-26T21:14:36.797Z,97202.81
2023-07-26T21:17:38.406Z,97208.53
2023-07-26T21:20:41.586Z,97208.53
2023-07-26T21:23:43.097Z,97215.72
2023-07-26T21:26:44.629Z,97205.66
2023-07-26T21:29:46.168Z,97205.47
2023-07-26T21:32:47.866Z,97200.78
2023-07-26T21:35:54.361Z,97201.78
2023-07-26T21:38:55.906Z,97199.94
2023-07-26T21:41:57.467Z,97206.91
2023-07-26T21:44:59.187Z,97205.47
2023-07-26T21:48:02.790Z,97201.97
2023-07-26T21:51:04.347Z,97201.53
2023-07-26T21:54:05.930Z,97202.09
2023-07-26T21:57:07.732Z,97202.50
2023-07-26T22:00:09.947Z,97207.81
2023-07-26T22:03:12.584Z,97204.97
2023-07-26T22:06:14.841Z,97204.31
2023-07-26T22:09:16.361Z,97200.22
2023-07-26T22:12:17.943Z,97203.31
2023-07-26T22:15:19.905Z,97200.44
2023-07-26T22:18:21.612Z,97194.13
2023-07-26T22:21:24.476Z,97205.16
2023-07-26T22:24:26.074Z,97190.81
2023-07-26T22:27:27.745Z,97191.66
2023-07-26T22:30:29.305Z,97193.88
2023-07-26T22:33:30.830Z,97195.31
2023-07-26T22:36:32.666Z,97189.16
2023-07-26T22:39:36.037Z,97187.75
2023-07-26T22:42:38.019Z,97186.28
2023-07-26T22:45:39.576Z,97188.38
2023-07-26T22:48:43.063Z,97189.56
2023-07-26T22:51:44.568Z,97183.41
2023-07-26T22:54:46.096Z,97184.47
2023-07-26T22:57:47.589Z,97178.72
2023-07-26T23:00:49.230Z,97180.63
2023-07-26T23:03:50.860Z,97167.94
2023-07-26T23:06:52.576Z,97161.81
2023-07-26T23:09:54.348Z,97176.94
2023-07-26T23:12:55.900Z,97174.69
2023-07-26T23:15:59.049Z,97168.78
2023-07-26T23:19:00.576Z,97165.09
2023-07-26T23:22:03.676Z,97164.44
2023-07-26T23:25:05.958Z,97163.00
2023-07-26T23:28:07.576Z,97163.44
2023-07-26T23:31:09.090Z,97149.91
2023-07-26T23:34:10.662Z,97161.38
2023-07-26T23:37:12.341Z,97146.81
2023-07-26T23:40:14.122Z,97150.03
2023-07-26T23:43:15.740Z,97141.16
2023-07-26T23:46:17.359Z,97145.63
2023-07-26T23:49:18.918Z,97145.00
2023-07-26T23:52:20.490Z,97147.66
2023-07-26T23:55:22.123Z,97130.88
2023-07-26T23:58:23.723Z,97142.06
